Time;durP1;ratioP1;P1;durP2;ratioP2;P2;SDS_P1;SDS_P2;PMS_P1;PMS_P2;Temp;Humidity;BMP_temperature;BMP_pressure;BME280_temperature;BME280_humidity;BME280_pressure;Samples;Min_cycle;Max_cycle;Signal;HPM_P1;HPM_P2
2023/08/03 00:01:51;;;;;;;1.60;1.50;;;17.40;99.90;;;;;;5141041;28;20185;-48
2023/08/03 00:04:22;;;;;;;1.60;1.53;;;17.40;99.90;;;;;;5139263;28;20227;-48
2023/08/03 00:06:52;;;;;;;1.63;1.53;;;17.40;99.90;;;;;;5141890;28;21020;-48
2023/08/03 00:09:24;;;;;;;1.27;1.27;;;17.40;99.90;;;;;;5160192;28;20216;-46
2023/08/03 00:11:55;;;;;;;1.97;1.87;;;17.40;99.90;;;;;;5140649;28;20177;-45
2023/08/03 00:14:25;;;;;;;1.63;1.53;;;17.40;99.90;;;;;;5159200;28;20475;-49
2023/08/03 00:16:56;;;;;;;1.90;1.80;;;17.40;99.90;;;;;;5155609;28;20304;-47
2023/08/03 00:19:27;;;;;;;2.97;1.97;;;17.40;99.90;;;;;;5137827;28;20181;-48
2023/08/03 00:21:57;;;;;;;4.70;1.67;;;17.40;99.90;;;;;;5162165;28;20189;-48
2023/08/03 00:24:28;;;;;;;2.77;1.50;;;17.40;99.90;;;;;;5161211;28;20263;-48
2023/08/03 00:26:58;;;;;;;1.37;1.20;;;17.40;99.90;;;;;;5154893;28;20184;-47
2023/08/03 00:29:29;;;;;;;3.67;1.47;;;17.40;99.90;;;;;;5158805;28;20186;-47
2023/08/03 00:32:00;;;;;;;1.63;1.20;;;17.40;99.90;;;;;;5140783;28;20272;-48
2023/08/03 00:34:30;;;;;;;2.23;1.90;;;17.40;99.90;;;;;;5142123;28;20201;-48
2023/08/03 00:37:01;;;;;;;1.60;1.53;;;17.30;99.90;;;;;;5157851;28;20176;-48
2023/08/03 00:39:32;;;;;;;1.57;1.30;;;17.40;99.90;;;;;;5143042;28;20240;-47
2023/08/03 00:42:04;;;;;;;1.70;1.50;;;17.30;99.90;;;;;;5124748;28;20181;-49
2023/08/03 00:44:34;;;;;;;1.37;1.27;;;17.30;99.90;;;;;;5123262;28;20240;-48
2023/08/03 00:47:05;;;;;;;2.77;1.17;;;17.30;99.90;;;;;;5157899;28;20440;-48
2023/08/03 00:49:36;;;;;;;1.07;0.97;;;17.30;99.90;;;;;;5158345;28;20189;-47
2023/08/03 00:52:07;;;;;;;0.80;0.80;;;17.30;99.90;;;;;;5132874;28;20185;-48
2023/08/03 00:54:37;;;;;;;1.50;1.50;;;17.30;99.90;;;;;;5136875;28;20201;-47
2023/08/03 00:57:08;;;;;;;1.40;1.33;;;17.30;99.90;;;;;;5159572;28;20288;-48
2023/08/03 00:59:38;;;;;;;1.03;1.03;;;17.20;99.90;;;;;;5154867;28;20193;-47
2023/08/03 01:02:09;;;;;;;1.47;1.17;;;17.20;99.90;;;;;;5143742;28;20217;-47
2023/08/03 01:04:40;;;;;;;1.80;1.70;;;17.20;99.90;;;;;;5127535;28;20290;-47
2023/08/03 01:07:10;;;;;;;1.40;1.07;;;17.20;99.90;;;;;;5159539;28;20185;-47
2023/08/03 01:09:41;;;;;;;4.80;1.60;;;17.20;99.90;;;;;;5155593;28;20173;-48
2023/08/03 01:12:12;;;;;;;1.50;1.40;;;17.30;99.90;;;;;;5155667;28;20180;-48
2023/08/03 01:14:43;;;;;;;1.30;1.30;;;17.30;99.90;;;;;;5160829;28;20681;-48
2023/08/03 01:17:14;;;;;;;1.77;1.67;;;17.30;99.90;;;;;;5157159;28;20239;-48
2023/08/03 01:19:44;;;;;;;1.60;1.33;;;17.30;99.90;;;;;;5157067;28;20441;-50
2023/08/03 01:22:16;;;;;;;5.60;1.67;;;17.50;99.90;;;;;;5161021;28;20193;-47
2023/08/03 01:24:47;;;;;;;1.10;1.10;;;17.50;99.90;;;;;;5156147;28;20272;-47
2023/08/03 01:27:18;;;;;;;1.27;1.17;;;17.40;99.90;;;;;;5143361;28;20821;-48
2023/08/03 01:29:48;;;;;;;2.40;1.10;;;17.40;99.90;;;;;;5130728;28;20261;-47
2023/08/03 01:32:19;;;;;;;1.40;1.03;;;17.40;99.90;;;;;;5158410;28;20527;-49
2023/08/03 01:34:50;;;;;;;4.50;1.57;;;17.40;99.90;;;;;;5141159;28;20617;-47
2023/08/03 01:37:20;;;;;;;2.40;1.30;;;17.40;99.90;;;;;;5164059;28;20189;-47
2023/08/03 01:39:51;;;;;;;2.90;1.13;;;17.40;99.90;;;;;;5147862;28;20542;-47
2023/08/03 01:42:22;;;;;;;2.77;1.10;;;17.40;99.90;;;;;;5155336;28;20185;-53
2023/08/03 01:44:52;;;;;;;1.40;1.30;;;17.40;99.90;;;;;;5158499;28;20220;-47
2023/08/03 01:47:23;;;;;;;1.27;1.27;;;17.40;99.90;;;;;;5144877;28;20191;-47
2023/08/03 01:49:53;;;;;;;2.93;1.40;;;17.30;99.90;;;;;;5160529;28;20185;-49
2023/08/03 01:52:24;;;;;;;1.60;1.50;;;17.20;99.90;;;;;;5161971;28;20177;-47
2023/08/03 01:54:55;;;;;;;1.30;1.20;;;17.20;99.90;;;;;;5161397;28;20715;-47
2023/08/03 01:57:25;;;;;;;3.20;1.93;;;17.10;99.90;;;;;;5157994;28;20216;-49
2023/08/03 01:59:56;;;;;;;4.93;1.50;;;17.10;99.90;;;;;;5147445;28;20195;-49
2023/08/03 02:02:27;;;;;;;1.80;1.30;;;17.00;99.90;;;;;;5142300;28;20185;-47
2023/08/03 02:04:58;;;;;;;1.93;1.10;;;17.00;99.90;;;;;;5162334;28;20212;-48
2023/08/03 02:08:01;;;;;;;2.20;1.30;;;17.00;99.90;;;;;;5157565;28;20502;-46
2023/08/03 02:10:31;;;;;;;1.77;1.67;;;17.10;99.90;;;;;;5131014;28;20216;-48
2023/08/03 02:13:02;;;;;;;1.97;1.87;;;17.10;99.90;;;;;;5162875;28;20471;-47
2023/08/03 02:15:32;;;;;;;1.20;1.20;;;17.20;99.90;;;;;;5139194;28;20240;-48
2023/08/03 02:18:03;;;;;;;1.03;1.00;;;17.30;99.90;;;;;;5148495;28;20189;-50
2023/08/03 02:20:33;;;;;;;1.70;1.60;;;17.30;99.90;;;;;;5132871;28;20185;-48
2023/08/03 02:23:04;;;;;;;1.47;1.33;;;17.20;99.90;;;;;;5156845;28;20205;-49
2023/08/03 02:25:35;;;;;;;3.00;1.27;;;17.30;99.90;;;;;;5148723;28;20259;-47
2023/08/03 02:28:05;;;;;;;1.30;1.20;;;17.40;99.90;;;;;;5144317;28;20190;-48
2023/08/03 02:30:37;;;;;;;1.20;1.20;;;17.40;99.90;;;;;;5163504;28;20218;-47
2023/08/03 02:33:08;;;;;;;1.30;1.20;;;17.30;99.90;;;;;;5147200;28;20185;-48
2023/08/03 02:35:39;;;;;;;2.87;1.50;;;17.20;99.90;;;;;;5140538;28;20514;-48
2023/08/03 02:38:10;;;;;;;1.63;1.53;;;17.20;99.90;;;;;;5166689;28;20196;-47
2023/08/03 02:40:40;;;;;;;2.80;1.20;;;17.30;99.90;;;;;;5161803;28;20429;-50
2023/08/03 02:43:11;;;;;;;1.50;1.40;;;17.20;99.90;;;;;;5165553;28;20212;-46
2023/08/03 02:45:41;;;;;;;1.30;1.30;;;17.10;99.90;;;;;;5139281;28;20201;-47
2023/08/03 02:48:12;;;;;;;1.43;1.37;;;17.40;99.90;;;;;;5145244;28;20185;-47
2023/08/03 02:50:43;;;;;;;4.97;2.10;;;17.50;99.90;;;;;;5145237;28;20232;-48
2023/08/03 02:53:13;;;;;;;3.80;0.90;;;17.50;99.90;;;;;;5158676;28;20181;-48
2023/08/03 02:55:44;;;;;;;2.00;1.80;;;17.50;99.90;;;;;;5160674;28;20241;-48
2023/08/03 02:58:14;;;;;;;1.20;1.20;;;17.60;99.90;;;;;;5149290;28;20181;-48
2023/08/03 03:00:45;;;;;;;2.93;1.27;;;17.50;99.90;;;;;;5159315;28;20186;-48
2023/08/03 03:03:16;;;;;;;2.47;1.53;;;17.60;99.90;;;;;;5156985;28;20197;-48
2023/08/03 03:05:47;;;;;;;2.80;1.90;;;17.70;99.90;;;;;;5152064;28;20288;-47
2023/08/03 03:08:17;;;;;;;2.00;1.90;;;17.60;99.90;;;;;;5143513;28;20273;-46
2023/08/03 03:10:48;;;;;;;2.90;1.57;;;17.50;99.90;;;;;;5158372;28;20192;-47
2023/08/03 03:13:19;;;;;;;1.40;1.40;;;17.40;99.90;;;;;;5158142;28;20650;-47
2023/08/03 03:15:49;;;;;;;1.67;1.57;;;17.30;99.90;;;;;;5169243;23;20286;-45
2023/08/03 03:18:20;;;;;;;0.97;0.93;;;17.30;99.90;;;;;;5140744;28;21122;-45
2023/08/03 03:20:50;;;;;;;1.10;1.10;;;17.30;99.90;;;;;;5139761;28;20216;-45
2023/08/03 03:23:21;;;;;;;1.77;1.67;;;17.30;99.90;;;;;;5159945;28;20218;-44
2023/08/03 03:25:52;;;;;;;2.20;1.50;;;17.30;99.90;;;;;;5161542;28;20878;-45
2023/08/03 03:28:22;;;;;;;2.57;2.03;;;17.50;99.90;;;;;;5159771;28;20193;-46
2023/08/03 03:30:53;;;;;;;2.87;1.60;;;17.40;99.90;;;;;;5145864;28;20653;-46
2023/08/03 03:33:23;;;;;;;1.40;1.30;;;17.40;99.90;;;;;;5140425;28;20185;-45
2023/08/03 03:35:54;;;;;;;1.83;1.73;;;17.40;99.90;;;;;;5156144;28;20611;-46
2023/08/03 03:38:25;;;;;;;1.47;1.40;;;17.40;99.90;;;;;;5144871;28;20719;-45
2023/08/03 03:40:55;;;;;;;1.50;1.40;;;17.50;99.90;;;;;;5156916;28;20189;-45
2023/08/03 03:43:26;;;;;;;1.67;1.57;;;17.50;99.90;;;;;;5158667;28;21569;-44
2023/08/03 03:45:56;;;;;;;6.50;1.50;;;17.50;99.90;;;;;;5144094;28;20195;-45
2023/08/03 03:48:27;;;;;;;3.30;1.50;;;17.50;99.90;;;;;;5138856;28;20364;-45
2023/08/03 03:50:58;;;;;;;1.57;1.27;;;17.60;99.90;;;;;;5155134;28;20188;-45
2023/08/03 03:53:28;;;;;;;4.23;1.10;;;17.60;99.90;;;;;;5159473;28;20181;-46
2023/08/03 03:55:59;;;;;;;4.40;1.83;;;17.70;99.90;;;;;;5144213;28;20192;-46
2023/08/03 03:58:29;;;;;;;3.40;1.27;;;17.70;99.90;;;;;;5159347;28;20185;-46
2023/08/03 04:01:00;;;;;;;2.20;1.27;;;17.80;99.90;;;;;;5152708;28;20216;-45
2023/08/03 04:03:31;;;;;;;5.03;1.50;;;17.80;99.90;;;;;;5160553;28;20619;-45
2023/08/03 04:06:01;;;;;;;4.07;1.80;;;17.80;99.90;;;;;;5144700;28;20280;-45
2023/08/03 04:08:32;;;;;;;1.50;1.40;;;17.90;99.90;;;;;;5159470;28;20268;-44
2023/08/03 04:11:03;;;;;;;1.63;1.30;;;17.90;99.90;;;;;;5160024;28;20183;-46
2023/08/03 04:13:34;;;;;;;3.30;1.80;;;17.90;99.90;;;;;;5137027;28;20204;-46
2023/08/03 04:16:04;;;;;;;3.67;1.57;;;18.00;99.90;;;;;;5153993;28;20208;-45
2023/08/03 04:18:35;;;;;;;2.00;1.40;;;18.00;99.90;;;;;;5159158;28;20436;-45
2023/08/03 04:21:06;;;;;;;1.87;1.73;;;18.10;99.90;;;;;;5145587;28;20215;-44
2023/08/03 04:23:36;;;;;;;3.23;1.40;;;18.20;99.90;;;;;;5141405;28;20211;-45
2023/08/03 04:26:07;;;;;;;5.70;2.17;;;18.10;99.90;;;;;;5138150;28;20244;-44
2023/08/03 04:28:38;;;;;;;7.07;1.97;;;18.20;99.90;;;;;;5141197;28;20191;-45
2023/08/03 04:31:09;;;;;;;1.90;1.80;;;18.30;99.90;;;;;;5138506;28;20530;-45
2023/08/03 04:33:40;;;;;;;2.30;1.60;;;18.40;99.90;;;;;;5145994;28;20205;-44
2023/08/03 04:36:10;;;;;;;1.47;1.47;;;18.50;99.90;;;;;;5159109;28;20488;-45
2023/08/03 04:38:41;;;;;;;1.80;1.50;;;18.70;99.90;;;;;;5144656;28;20189;-45
2023/08/03 04:41:14;;;;;;;15.30;2.47;;;18.90;99.90;;;;;;5154040;28;20213;-44
2023/08/03 04:43:44;;;;;;;3.00;1.73;;;19.10;99.90;;;;;;5125830;28;20220;-45
2023/08/03 04:46:15;;;;;;;3.97;1.80;;;19.00;99.90;;;;;;5135964;28;20972;-45
2023/08/03 04:48:45;;;;;;;1.90;1.00;;;19.00;99.90;;;;;;5155643;28;20181;-46
2023/08/03 04:51:16;;;;;;;1.73;1.50;;;19.10;99.90;;;;;;5140813;28;20204;-46
2023/08/03 04:53:47;;;;;;;3.10;1.73;;;19.00;99.90;;;;;;5152830;28;20272;-45
2023/08/03 04:56:17;;;;;;;3.60;1.57;;;18.90;99.90;;;;;;5140532;28;20202;-46
2023/08/03 04:58:48;;;;;;;1.43;1.37;;;19.00;99.90;;;;;;5160735;28;20708;-45
2023/08/03 05:01:18;;;;;;;2.13;1.63;;;18.90;99.90;;;;;;5153897;28;20190;-44
2023/08/03 05:03:49;;;;;;;5.50;1.43;;;19.10;99.90;;;;;;5152365;28;20193;-46
2023/08/03 05:06:20;;;;;;;9.27;1.83;;;19.20;99.90;;;;;;5138389;28;20173;-45
2023/08/03 05:08:50;;;;;;;5.30;2.10;;;19.20;99.90;;;;;;5157501;28;20276;-46
2023/08/03 05:11:21;;;;;;;5.37;1.67;;;19.60;99.90;;;;;;5138742;28;20209;-46
2023/08/03 05:13:52;;;;;;;4.87;1.67;;;19.60;99.90;;;;;;5156540;28;20199;-46
2023/08/03 05:16:26;;;;;;;8.90;1.50;;;19.50;99.90;;;;;;5124703;28;20216;-46
2023/08/03 05:18:57;;;;;;;3.60;1.90;;;19.50;99.90;;;;;;5153696;28;20228;-45
2023/08/03 05:21:27;;;;;;;3.10;1.47;;;19.40;99.90;;;;;;5158061;28;20451;-46
2023/08/03 05:23:58;;;;;;;3.90;1.20;;;19.50;99.90;;;;;;5136860;28;20224;-45
2023/08/03 05:26:32;;;;;;;9.30;1.73;;;21.30;99.90;;;;;;5161769;28;20355;-46
2023/08/03 05:29:03;;;;;;;1.87;1.60;;;22.50;99.90;;;;;;5141698;28;20692;-45
2023/08/03 05:31:34;;;;;;;7.13;1.57;;;22.20;99.90;;;;;;5145448;28;20442;-46
2023/08/03 05:34:04;;;;;;;3.60;1.70;;;21.80;99.90;;;;;;5145540;28;20176;-45
2023/08/03 05:36:35;;;;;;;9.70;1.40;;;21.40;99.90;;;;;;5140353;28;20409;-47
2023/08/03 05:39:07;;;;;;;11.73;2.37;;;23.10;99.90;;;;;;5152205;28;20208;-45
2023/08/03 05:41:38;;;;;;;4.67;1.37;;;26.20;99.90;;;;;;5157825;28;20189;-44
2023/08/03 05:44:11;;;;;;;2.83;1.67;;;28.40;94.70;;;;;;5139675;28;20474;-45
2023/08/03 05:46:42;;;;;;;3.43;1.70;;;30.40;76.00;;;;;;5140660;28;20184;-44
2023/08/03 05:49:13;;;;;;;5.70;1.60;;;31.20;63.80;;;;;;5127559;28;20447;-45
2023/08/03 05:51:44;;;;;;;3.13;1.93;;;29.20;64.00;;;;;;5159093;28;20176;-45
2023/08/03 05:54:18;;;;;;;2.40;1.27;;;28.20;67.30;;;;;;5160021;28;20216;-45
2023/08/03 05:56:48;;;;;;;4.50;1.50;;;26.80;70.20;;;;;;5159693;28;20188;-45
2023/08/03 05:59:22;;;;;;;7.50;1.43;;;25.60;75.30;;;;;;5137287;28;20455;-45
2023/08/03 06:01:53;;;;;;;1.50;1.40;;;25.80;76.10;;;;;;5145461;28;20277;-45
2023/08/03 06:04:24;;;;;;;1.63;1.50;;;26.30;76.90;;;;;;5158782;28;20991;-45
2023/08/03 06:06:55;;;;;;;4.67;1.77;;;28.20;70.70;;;;;;5155354;28;20185;-46
2023/08/03 06:09:25;;;;;;;3.20;1.50;;;30.40;61.80;;;;;;5157783;28;20836;-46
2023/08/03 06:11:56;;;;;;;3.23;1.43;;;32.00;56.90;;;;;;5139635;28;20268;-46
2023/08/03 06:14:26;;;;;;;7.43;1.33;;;32.40;52.60;;;;;;5156862;28;20212;-45
2023/08/03 06:16:57;;;;;;;3.50;1.63;;;33.20;50.60;;;;;;5143266;28;20187;-46
2023/08/03 06:19:31;;;;;;;2.73;1.43;;;33.80;48.10;;;;;;5138512;28;20717;-46
2023/08/03 06:22:16;;;;;;;2.73;1.37;;;34.60;46.10;;;;;;5151288;28;20270;-45
2023/08/03 06:24:48;;;;;;;4.77;1.37;;;34.80;44.70;;;;;;5160744;28;20479;-46
2023/08/03 06:27:18;;;;;;;6.73;1.23;;;34.70;43.70;;;;;;5140775;28;20184;-44
2023/08/03 06:29:49;;;;;;;4.33;1.40;;;33.20;45.00;;;;;;5155371;28;20351;-47
2023/08/03 06:32:23;;;;;;;6.40;1.07;;;31.10;47.70;;;;;;5125749;28;20191;-46
2023/08/03 06:34:56;;;;;;;5.90;1.57;;;30.70;49.70;;;;;;5141337;28;20211;-45
2023/08/03 06:37:27;;;;;;;6.80;1.50;;;32.10;48.10;;;;;;5150129;28;20446;-45
2023/08/03 06:39:58;;;;;;;1.40;0.90;;;32.60;46.70;;;;;;5128976;28;20573;-46
2023/08/03 06:42:29;;;;;;;2.10;1.30;;;33.30;45.10;;;;;;5153158;28;20431;-45
2023/08/03 06:44:59;;;;;;;3.07;1.33;;;33.70;44.00;;;;;;5154280;28;20324;-45
2023/08/03 06:47:30;;;;;;;4.17;1.33;;;33.00;44.70;;;;;;5160539;28;20185;-45
2023/08/03 06:50:01;;;;;;;4.17;0.87;;;32.40;45.90;;;;;;5154547;28;20255;-45
2023/08/03 06:52:32;;;;;;;12.57;1.90;;;34.30;44.00;;;;;;5139676;28;20484;-45
2023/08/03 06:55:03;;;;;;;5.60;2.37;;;34.50;41.80;;;;;;5160876;28;20208;-46
2023/08/03 06:57:34;;;;;;;1.50;1.40;;;33.90;42.00;;;;;;5138076;28;20201;-46
2023/08/03 07:00:05;;;;;;;6.00;1.93;;;33.80;42.90;;;;;;5141843;28;20310;-45
2023/08/03 07:02:36;;;;;;;3.37;2.20;;;33.90;42.80;;;;;;5151639;28;20461;-45
2023/08/03 07:05:06;;;;;;;2.47;0.83;;;32.20;44.40;;;;;;5157039;28;20294;-45
2023/08/03 07:07:37;;;;;;;4.70;1.77;;;30.10;47.70;;;;;;5139771;28;20239;-45
2023/08/03 07:10:08;;;;;;;1.43;0.97;;;28.10;51.00;;;;;;5158642;28;20185;-45
2023/08/03 07:12:38;;;;;;;1.40;1.30;;;26.80;53.80;;;;;;5157281;28;20527;-45
2023/08/03 07:15:09;;;;;;;5.43;1.07;;;26.00;55.50;;;;;;5156955;28;20212;-45
2023/08/03 07:17:40;;;;;;;1.63;1.23;;;25.40;57.40;;;;;;5159190;28;20177;-46
2023/08/03 07:20:11;;;;;;;11.37;1.67;;;24.90;58.90;;;;;;5134951;28;20665;-44
2023/08/03 07:22:41;;;;;;;1.07;1.03;;;24.40;60.00;;;;;;5155398;28;20185;-46
2023/08/03 07:25:12;;;;;;;2.10;0.90;;;24.20;60.80;;;;;;5140850;28;20475;-47
2023/08/03 07:27:44;;;;;;;3.40;1.00;;;24.10;61.50;;;;;;5158529;28;20174;-45
2023/08/03 07:30:14;;;;;;;7.33;1.30;;;24.00;62.10;;;;;;5136870;28;20240;-45
2023/08/03 07:32:45;;;;;;;3.80;1.17;;;23.90;62.70;;;;;;5139857;28;20436;-47
2023/08/03 07:35:16;;;;;;;2.03;1.00;;;23.40;63.90;;;;;;5141911;28;20212;-45
2023/08/03 07:37:47;;;;;;;3.27;1.30;;;22.80;66.00;;;;;;5153093;28;20445;-45
2023/08/03 07:40:17;;;;;;;6.60;1.70;;;22.70;68.00;;;;;;5158589;28;21049;-45
2023/08/03 07:42:48;;;;;;;1.43;1.17;;;22.70;69.00;;;;;;5139228;28;20185;-46
2023/08/03 07:45:19;;;;;;;1.13;1.07;;;22.90;69.30;;;;;;5160069;28;20323;-45
2023/08/03 07:47:50;;;;;;;3.60;1.20;;;23.20;69.00;;;;;;5140320;28;20184;-45
2023/08/03 07:50:20;;;;;;;2.30;0.93;;;23.40;68.10;;;;;;5155760;28;20433;-45
2023/08/03 07:52:51;;;;;;;2.90;1.73;;;23.50;67.70;;;;;;5161554;28;20174;-45
2023/08/03 07:55:21;;;;;;;3.23;1.10;;;23.60;67.20;;;;;;5144507;28;20204;-44
2023/08/03 07:57:52;;;;;;;2.67;1.20;;;23.50;67.20;;;;;;5161166;28;20185;-46
2023/08/03 08:00:23;;;;;;;1.00;0.97;;;23.60;66.90;;;;;;5140496;28;20185;-44
2023/08/03 08:02:54;;;;;;;0.90;0.87;;;23.90;66.80;;;;;;5157004;28;20257;-45
2023/08/03 08:05:24;;;;;;;4.33;1.40;;;24.30;65.50;;;;;;5158874;28;20213;-45
2023/08/03 08:07:55;;;;;;;1.10;1.00;;;24.70;65.10;;;;;;5159058;28;20192;-45
2023/08/03 08:10:26;;;;;;;1.33;0.77;;;26.30;61.40;;;;;;5136451;28;20208;-45
2023/08/03 08:12:56;;;;;;;2.67;0.77;;;27.90;58.70;;;;;;5156923;28;20234;-46
2023/08/03 08:15:28;;;;;;;1.27;1.13;;;28.10;55.40;;;;;;5121477;28;20209;-45
2023/08/03 08:17:58;;;;;;;2.40;0.93;;;27.90;55.70;;;;;;5159502;28;20220;-46
2023/08/03 08:20:29;;;;;;;0.90;0.90;;;27.20;56.20;;;;;;5137960;28;22150;-46
2023/08/03 08:22:59;;;;;;;3.33;1.23;;;26.50;57.80;;;;;;5150326;28;20308;-47
2023/08/03 08:25:34;;;;;;;0.70;0.70;;;25.90;58.70;;;;;;5141587;28;20271;-47
2023/08/03 08:28:05;;;;;;;0.90;0.90;;;25.40;59.70;;;;;;5151038;28;20184;-45
2023/08/03 08:30:35;;;;;;;1.30;0.73;;;25.30;61.30;;;;;;5125491;28;20502;-46
2023/08/03 08:33:06;;;;;;;2.00;1.03;;;25.20;61.20;;;;;;5138947;28;20200;-45
2023/08/03 08:35:36;;;;;;;0.80;0.80;;;25.00;62.40;;;;;;5154015;28;20196;-46
2023/08/03 08:38:14;;;;;;;1.57;0.80;;;25.10;62.10;;;;;;5137450;28;20204;-46
2023/08/03 08:40:45;;;;;;;1.90;0.80;;;24.80;61.70;;;;;;5139874;28;20343;-45
2023/08/03 08:43:18;;;;;;;1.67;0.83;;;24.40;62.90;;;;;;5155544;28;20539;-46
2023/08/03 08:45:49;;;;;;;1.17;0.63;;;25.70;61.80;;;;;;5155112;28;20523;-46
2023/08/03 08:48:20;;;;;;;1.43;0.70;;;27.50;57.80;;;;;;5156469;28;21015;-46
2023/08/03 08:50:51;;;;;;;1.70;0.60;;;28.60;54.00;;;;;;5156547;28;20223;-46
2023/08/03 08:53:22;;;;;;;2.30;0.90;;;28.90;52.30;;;;;;5155678;28;20584;-47
2023/08/03 08:55:52;;;;;;;0.67;0.67;;;29.30;52.20;;;;;;5155870;28;20463;-47
2023/08/03 08:58:24;;;;;;;10.50;1.10;;;29.70;51.60;;;;;;5157914;28;20559;-46
2023/08/03 09:01:04;;;;;;;0.73;0.40;;;28.40;51.90;;;;;;5124877;28;21344;-45
2023/08/03 09:03:56;;;;;;;0.73;0.73;;;27.90;53.90;;;;;;5153310;28;20510;-45
2023/08/03 09:06:26;;;;;;;1.10;1.00;;;27.50;54.40;;;;;;5142042;28;20538;-46
2023/08/03 09:08:58;;;;;;;0.70;0.70;;;27.30;55.60;;;;;;5142667;28;20530;-44
2023/08/03 09:11:40;;;;;;;0.83;0.60;;;26.80;56.30;;;;;;5152965;28;20188;-46
2023/08/03 09:14:14;;;;;;;0.70;0.70;;;26.30;56.20;;;;;;5119886;28;20471;-45
2023/08/03 09:16:44;;;;;;;2.13;1.03;;;25.70;57.40;;;;;;5181548;23;21029;-48
2023/08/03 09:19:33;;;;;;;1.23;0.90;;;25.60;58.30;;;;;;5154255;28;20444;-46
2023/08/03 09:22:04;;;;;;;0.60;0.60;;;25.60;58.90;;;;;;5152738;28;20718;-48
2023/08/03 09:24:35;;;;;;;0.50;0.50;;;25.40;59.40;;;;;;5157157;28;20566;-50
2023/08/03 09:27:06;;;;;;;1.67;0.73;;;25.50;59.50;;;;;;5155938;28;20463;-48
2023/08/03 09:29:38;;;;;;;1.70;0.80;;;25.60;59.20;;;;;;5160397;28;20188;-48
2023/08/03 09:32:09;;;;;;;3.63;1.10;;;25.50;59.00;;;;;;5153958;28;20502;-48
2023/08/03 09:34:44;;;;;;;1.13;0.80;;;25.40;58.20;;;;;;5153258;28;20443;-49
2023/08/03 09:37:16;;;;;;;0.40;0.40;;;25.50;58.50;;;;;;5144485;28;20503;-47
2023/08/03 09:39:54;;;;;;;7.10;0.93;;;25.40;58.50;;;;;;5155037;28;20433;-49
2023/08/03 09:42:27;;;;;;;4.33;1.00;;;25.30;59.40;;;;;;5161676;28;20444;-48
2023/08/03 09:45:02;;;;;;;0.63;0.63;;;25.10;59.30;;;;;;5156234;28;20494;-50
2023/08/03 09:47:36;;;;;;;1.30;1.10;;;24.80;60.30;;;;;;5138075;28;20460;-49
2023/08/03 09:50:08;;;;;;;3.37;1.00;;;24.50;60.80;;;;;;5139872;28;20480;-48
2023/08/03 09:52:46;;;;;;;0.70;0.70;;;24.30;62.30;;;;;;5136509;28;20437;-47
2023/08/03 09:55:28;;;;;;;0.83;0.60;;;24.10;61.80;;;;;;5156712;28;20450;-49
2023/08/03 09:58:15;;;;;;;2.33;1.10;;;23.70;62.70;;;;;;5141752;28;20459;-48
2023/08/03 10:00:47;;;;;;;0.60;0.60;;;23.70;64.50;;;;;;5140343;28;20793;-48
2023/08/03 10:03:18;;;;;;;1.90;0.90;;;23.90;65.10;;;;;;5138310;28;20467;-49
2023/08/03 10:05:52;;;;;;;0.70;0.70;;;24.50;63.40;;;;;;5142037;28;20443;-48
2023/08/03 10:08:35;;;;;;;2.70;0.80;;;25.10;61.90;;;;;;5142235;28;20882;-49
2023/08/03 10:11:10;;;;;;;1.63;0.70;;;25.20;60.40;;;;;;5156236;28;20905;-49
2023/08/03 10:13:46;;;;;;;0.80;0.70;;;25.50;60.50;;;;;;5136842;28;20587;-49
2023/08/03 10:16:18;;;;;;;1.70;0.60;;;25.80;59.60;;;;;;5139007;28;20475;-47
2023/08/03 10:18:50;;;;;;;0.57;0.57;;;26.00;57.90;;;;;;5140959;28;20440;-49
2023/08/03 10:21:21;;;;;;;4.03;0.63;;;25.90;58.00;;;;;;5144171;28;21011;-48
2023/08/03 10:24:10;;;;;;;4.77;0.93;;;25.80;58.60;;;;;;5152104;28;20482;-49
2023/08/03 10:26:42;;;;;;;0.70;0.70;;;25.90;57.90;;;;;;5149099;28;20455;-48
2023/08/03 10:29:13;;;;;;;2.63;0.73;;;26.10;57.70;;;;;;5142677;28;21004;-48
2023/08/03 10:31:55;;;;;;;0.70;0.70;;;26.20;57.60;;;;;;5160077;28;20451;-48
2023/08/03 10:34:29;;;;;;;1.33;1.13;;;26.10;58.10;;;;;;5143136;28;20207;-47
2023/08/03 10:37:00;;;;;;;0.57;0.57;;;26.30;58.50;;;;;;5148991;28;20467;-48
2023/08/03 10:39:53;;;;;;;4.93;0.70;;;26.30;58.20;;;;;;5163558;28;20530;-49
2023/08/03 10:42:30;;;;;;;2.60;0.90;;;26.30;57.60;;;;;;5164310;28;20527;-47
2023/08/03 10:45:25;;;;;;;1.27;0.80;;;26.20;57.40;;;;;;5163617;28;20463;-48
2023/08/03 10:48:21;;;;;;;0.80;0.80;;;25.60;58.10;;;;;;5166254;28;20444;-49
2023/08/03 10:50:58;;;;;;;1.40;1.30;;;25.40;59.80;;;;;;5132759;28;20555;-47
2023/08/03 10:53:29;;;;;;;9.57;1.37;;;25.00;61.10;;;;;;5142048;28;20441;-48
2023/08/03 10:56:10;;;;;;;7.23;1.27;;;24.80;62.70;;;;;;5161073;28;20452;-48
2023/08/03 10:58:42;;;;;;;1.17;0.60;;;24.90;63.50;;;;;;5162728;28;20440;-49
2023/08/03 11:01:20;;;;;;;2.03;1.10;;;25.10;61.90;;;;;;5143490;28;20440;-46
2023/08/03 11:03:50;;;;;;;1.93;1.70;;;25.00;61.70;;;;;;5142056;28;20991;-48
2023/08/03 11:06:22;;;;;;;0.70;0.70;;;25.10;62.00;;;;;;5159570;28;20463;-48
2023/08/03 11:08:55;;;;;;;4.13;1.37;;;25.40;61.50;;;;;;5130671;28;20232;-48
2023/08/03 11:11:32;;;;;;;4.10;1.13;;;25.40;61.80;;;;;;5155611;28;20502;-48
2023/08/03 11:14:03;;;;;;;5.60;0.97;;;25.10;62.20;;;;;;5148330;28;20500;-48
2023/08/03 11:16:34;;;;;;;2.90;1.00;;;24.70;62.90;;;;;;5151739;28;20527;-48
2023/08/03 11:19:05;;;;;;;1.80;1.03;;;24.80;61.60;;;;;;5138678;28;20717;-49
2023/08/03 11:21:35;;;;;;;1.23;1.00;;;24.90;61.90;;;;;;5159267;28;20192;-48
2023/08/03 11:24:06;;;;;;;3.63;0.90;;;25.40;60.50;;;;;;5143997;28;20244;-49
2023/08/03 11:26:37;;;;;;;0.90;0.90;;;25.80;59.10;;;;;;5153872;28;20229;-48
2023/08/03 11:29:09;;;;;;;0.97;0.80;;;25.90;58.50;;;;;;5145959;28;20410;-47
2023/08/03 11:31:40;;;;;;;0.97;0.60;;;25.70;58.10;;;;;;5136316;28;20436;-50
2023/08/03 11:34:11;;;;;;;1.27;1.07;;;25.10;62.20;;;;;;5152176;28;20447;-50
2023/08/03 11:36:48;;;;;;;3.03;1.50;;;24.70;67.20;;;;;;5139337;28;20264;-49
2023/08/03 11:39:20;;;;;;;2.10;1.00;;;24.30;69.10;;;;;;5156203;28;20184;-48
2023/08/03 11:41:55;;;;;;;0.97;0.97;;;24.20;70.30;;;;;;5134007;28;20448;-47
2023/08/03 11:44:26;;;;;;;0.80;0.80;;;24.30;69.70;;;;;;5157524;28;20467;-47
2023/08/03 11:47:09;;;;;;;0.77;0.77;;;24.10;69.80;;;;;;5158475;28;20460;-49
2023/08/03 11:49:40;;;;;;;1.80;1.70;;;24.00;69.80;;;;;;5133814;28;20244;-49
2023/08/03 11:52:21;;;;;;;2.50;1.77;;;23.80;70.80;;;;;;5133799;28;20433;-46
2023/08/03 11:54:52;;;;;;;1.40;1.30;;;24.20;70.50;;;;;;5165060;28;20808;-47
2023/08/03 12:00:14;;;;;;;1.23;1.13;;;25.10;67.80;;;;;;5162773;28;20637;-49
2023/08/03 12:02:45;;;;;;;0.87;0.77;;;25.20;66.40;;;;;;5152259;28;20811;-49
2023/08/03 12:05:17;;;;;;;3.47;1.10;;;25.30;66.50;;;;;;5156355;28;20460;-48
2023/08/03 12:07:57;;;;;;;0.67;0.67;;;25.50;65.20;;;;;;5161305;28;20451;-48
2023/08/03 12:10:28;;;;;;;5.93;0.60;;;25.70;64.00;;;;;;5159634;28;20849;-49
2023/08/03 12:12:58;;;;;;;0.50;0.50;;;25.80;63.00;;;;;;5163093;28;20448;-48
2023/08/03 12:15:30;;;;;;;0.70;0.67;;;25.50;61.90;;;;;;5158787;28;20182;-47
2023/08/03 12:18:01;;;;;;;0.60;0.60;;;25.00;62.90;;;;;;5141778;28;20236;-50
2023/08/03 12:20:31;;;;;;;1.33;0.50;;;24.80;64.30;;;;;;5137952;28;20444;-47
2023/08/03 12:23:02;;;;;;;1.37;0.57;;;24.80;63.10;;;;;;5141973;28;20890;-49
2023/08/03 12:25:33;;;;;;;0.87;0.70;;;24.50;63.40;;;;;;5137572;28;20291;-48
2023/08/03 12:28:04;;;;;;;3.70;0.90;;;24.40;64.30;;;;;;5138833;28;20209;-49
2023/08/03 12:30:35;;;;;;;0.40;0.40;;;24.20;64.80;;;;;;5152603;28;20223;-47
2023/08/03 12:33:06;;;;;;;0.97;0.60;;;24.30;65.10;;;;;;5144555;28;20459;-47
2023/08/03 12:35:37;;;;;;;11.23;3.30;;;24.20;63.80;;;;;;5161138;28;20262;-46
2023/08/03 12:38:08;;;;;;;0.90;0.90;;;23.60;70.20;;;;;;5157697;28;20551;-48
2023/08/03 12:40:39;;;;;;;0.93;0.90;;;23.40;73.10;;;;;;5141686;28;20220;-49
2023/08/03 12:43:09;;;;;;;1.00;1.00;;;23.40;74.50;;;;;;5157548;28;20631;-48
2023/08/03 12:45:40;;;;;;;0.83;0.83;;;23.60;73.90;;;;;;5146428;28;20196;-49
2023/08/03 12:48:11;;;;;;;6.93;1.30;;;23.80;72.20;;;;;;5147306;28;20223;-50
2023/08/03 12:50:44;;;;;;;3.40;0.80;;;24.10;71.70;;;;;;5138941;28;20196;-49
2023/08/03 12:53:18;;;;;;;1.27;0.90;;;24.30;69.50;;;;;;5159289;28;20221;-47
2023/08/03 12:55:48;;;;;;;2.40;1.33;;;24.20;68.80;;;;;;5156063;28;20527;-47
2023/08/03 12:58:19;;;;;;;0.67;0.67;;;23.90;72.20;;;;;;5155764;28;20535;-47
2023/08/03 13:00:50;;;;;;;0.70;0.70;;;23.30;75.00;;;;;;5154938;28;20185;-49
2023/08/03 13:03:21;;;;;;;2.17;1.23;;;22.80;78.10;;;;;;5143678;28;20245;-47
2023/08/03 13:05:54;;;;;;;3.60;0.80;;;22.80;77.90;;;;;;5154277;28;20676;-47
2023/08/03 13:08:24;;;;;;;2.57;0.70;;;22.60;75.80;;;;;;5157401;28;20701;-48
2023/08/03 13:10:58;;;;;;;5.80;1.60;;;22.80;75.50;;;;;;5153255;28;20547;-47
2023/08/03 13:13:28;;;;;;;1.03;0.90;;;23.00;75.30;;;;;;5157022;28;20704;-48